Time;durP1;ratioP1;P1;durP2;ratioP2;P2;SDS_P1;SDS_P2;PMS_P1;PMS_P2;Temp;Humidity;BMP_temperature;BMP_pressure;BME280_temperature;BME280_humidity;BME280_pressure;Samples;Min_cycle;Max_cycle;Signal;HPM_P1;HPM_P2
2021/05/25 00:00:05;;;;;;;6.80;5.50;;;;;;;;;;5011675;28;20057;-62
2021/05/25 00:02:57;;;;;;;6.07;4.85;;;;;;;;;;5013531;28;20041;-62
2021/05/25 00:05:42;;;;;;;5.32;4.00;;;;;;;;;;5013449;28;20064;-63
2021/05/25 00:08:29;;;;;;;5.75;4.30;;;;;;;;;;5010279;28;20042;-62
2021/05/25 00:11:16;;;;;;;5.00;4.20;;;;;;;;;;5013180;28;20046;-64
2021/05/25 00:14:03;;;;;;;5.82;4.32;;;;;;;;;;5009510;28;20125;-62
2021/05/25 00:16:49;;;;;;;6.15;4.65;;;;;;;;;;4993493;28;20468;-62
2021/05/25 00:19:34;;;;;;;4.68;4.28;;;;;;;;;;5006157;28;20054;-63
2021/05/25 00:22:19;;;;;;;5.38;4.78;;;;;;;;;;4998009;28;20053;-62
2021/05/25 00:25:05;;;;;;;5.55;4.78;;;;;;;;;;5013081;28;20057;-62
2021/05/25 00:27:51;;;;;;;4.63;4.22;;;;;;;;;;5012831;28;20128;-63
2021/05/25 00:30:36;;;;;;;5.32;4.78;;;;;;;;;;5012457;28;20041;-63
2021/05/25 00:33:21;;;;;;;7.25;4.38;;;;;;;;;;5001478;28;20057;-62
2021/05/25 00:36:12;;;;;;;5.40;4.53;;;;;;;;;;4993341;28;20049;-62
2021/05/25 00:38:58;;;;;;;6.63;4.32;;;;;;;;;;4971866;28;20053;-66
2021/05/25 00:41:43;;;;;;;7.63;5.10;;;;;;;;;;4972244;28;20507;-65
2021/05/25 00:44:29;;;;;;;8.73;5.22;;;;;;;;;;4960000;28;20051;-65
2021/05/25 00:47:14;;;;;;;10.00;5.97;;;;;;;;;;4958422;28;20052;-65
2021/05/25 00:50:12;;;;;;;6.70;5.63;;;;;;;;;;4954050;29;20054;-65
2021/05/25 00:52:59;;;;;;;7.28;6.57;;;;;;;;;;4971602;28;20540;-66
2021/05/25 00:55:45;;;;;;;6.82;6.15;;;;;;;;;;4955570;28;20047;-65
2021/05/25 00:58:34;;;;;;;7.82;7.03;;;;;;;;;;4953976;28;20414;-65
2021/05/25 01:01:19;;;;;;;8.27;6.97;;;;;;;;;;4941030;29;20047;-66
2021/05/25 01:04:07;;;;;;;9.57;7.50;;;;;;;;;;4954158;29;20055;-65
2021/05/25 01:06:52;;;;;;;8.48;7.57;;;;;;;;;;4954047;28;20051;-63
2021/05/25 01:09:37;;;;;;;7.70;6.90;;;;;;;;;;4968569;28;20046;-63
2021/05/25 01:12:26;;;;;;;8.27;7.47;;;;;;;;;;4973408;28;20142;-63
2021/05/25 01:15:12;;;;;;;8.07;7.07;;;;;;;;;;4968164;28;20114;-63
2021/05/25 01:17:58;;;;;;;8.75;7.32;;;;;;;;;;4953939;28;20118;-63
2021/05/25 01:20:45;;;;;;;8.45;7.35;;;;;;;;;;4953749;29;20047;-63
2021/05/25 01:23:32;;;;;;;10.57;7.50;;;;;;;;;;4967564;28;20046;-63
2021/05/25 01:26:18;;;;;;;8.70;7.80;;;;;;;;;;4973433;28;20046;-63
2021/05/25 01:29:03;;;;;;;9.35;8.13;;;;;;;;;;4966900;28;20046;-63
2021/05/25 01:31:49;;;;;;;9.85;7.50;;;;;;;;;;4953630;29;20055;-63
2021/05/25 01:34:35;;;;;;;10.95;7.97;;;;;;;;;;4953823;29;20050;-63
2021/05/25 01:37:22;;;;;;;10.18;7.60;;;;;;;;;;4965852;28;20565;-63
2021/05/25 01:40:08;;;;;;;11.38;7.80;;;;;;;;;;4973020;28;20051;-63
2021/05/25 01:42:53;;;;;;;8.75;7.47;;;;;;;;;;4965899;28;20133;-63
2021/05/25 01:45:39;;;;;;;11.60;8.25;;;;;;;;;;4953821;28;20044;-63
2021/05/25 01:48:24;;;;;;;10.02;8.18;;;;;;;;;;4971354;28;20054;-63
2021/05/25 01:51:09;;;;;;;9.85;8.02;;;;;;;;;;4972313;28;20144;-63
2021/05/25 01:53:55;;;;;;;11.88;8.50;;;;;;;;;;4974857;28;20412;-63
2021/05/25 01:56:41;;;;;;;11.70;8.50;;;;;;;;;;4970072;28;20042;-63
2021/05/25 01:59:26;;;;;;;11.63;9.32;;;;;;;;;;4956974;29;20138;-63
2021/05/25 02:02:12;;;;;;;12.57;9.95;;;;;;;;;;4960531;28;20482;-63
2021/05/25 02:04:57;;;;;;;12.85;10.43;;;;;;;;;;4976670;28;20046;-63
2021/05/25 02:07:46;;;;;;;16.02;11.50;;;;;;;;;;4976530;28;20137;-63
2021/05/25 02:10:33;;;;;;;16.67;11.50;;;;;;;;;;4976218;28;20053;-63
2021/05/25 02:13:19;;;;;;;15.13;12.73;;;;;;;;;;4976347;28;20047;-63
2021/05/25 02:16:06;;;;;;;16.60;12.20;;;;;;;;;;4966779;28;20043;-63
2021/05/25 02:18:51;;;;;;;16.65;12.10;;;;;;;;;;4955817;29;20482;-63
2021/05/25 02:21:36;;;;;;;17.20;12.43;;;;;;;;;;4956740;29;20058;-63
2021/05/25 02:24:22;;;;;;;21.30;14.35;;;;;;;;;;4950322;29;20923;-63
2021/05/25 02:27:07;;;;;;;18.02;13.63;;;;;;;;;;4956995;28;20070;-63
2021/05/25 02:29:53;;;;;;;19.00;14.15;;;;;;;;;;4965276;28;20055;-63
2021/05/25 02:32:38;;;;;;;20.85;14.52;;;;;;;;;;4968377;28;20570;-63
2021/05/25 02:35:23;;;;;;;22.88;14.98;;;;;;;;;;4969578;28;20046;-63
2021/05/25 02:38:09;;;;;;;21.75;14.80;;;;;;;;;;4956583;28;20059;-63
2021/05/25 02:40:55;;;;;;;21.88;14.77;;;;;;;;;;4956475;29;20461;-63
2021/05/25 02:43:40;;;;;;;22.33;15.15;;;;;;;;;;4963614;28;20047;-63
2021/05/25 02:46:26;;;;;;;20.98;16.38;;;;;;;;;;4975903;28;20053;-63
2021/05/25 02:49:11;;;;;;;23.33;16.73;;;;;;;;;;4975710;28;20175;-63
2021/05/25 02:51:56;;;;;;;22.13;15.82;;;;;;;;;;4968617;28;20633;-63
2021/05/25 02:54:42;;;;;;;26.27;16.02;;;;;;;;;;4968030;28;20413;-63
2021/05/25 02:57:27;;;;;;;25.95;16.08;;;;;;;;;;4961502;28;20155;-63
2021/05/25 03:00:16;;;;;;;11.95;7.88;;;;;;;;;;4975325;28;20054;-63
2021/05/25 03:03:02;;;;;;;9.18;5.88;;;;;;;;;;4956188;29;20120;-63
2021/05/25 03:05:47;;;;;;;5.57;4.30;;;;;;;;;;4955629;28;20071;-63
2021/05/25 03:08:33;;;;;;;6.15;4.30;;;;;;;;;;4955193;28;20130;-63
2021/05/25 03:11:18;;;;;;;4.53;3.40;;;;;;;;;;4955806;29;20057;-63
2021/05/25 03:14:04;;;;;;;4.93;3.72;;;;;;;;;;4970471;28;20094;-63
2021/05/25 03:16:49;;;;;;;5.68;4.00;;;;;;;;;;4975349;28;20130;-63
2021/05/25 03:19:34;;;;;;;4.60;3.38;;;;;;;;;;4971489;28;20039;-63
2021/05/25 03:22:20;;;;;;;2.35;2.15;;;;;;;;;;4969554;28;20549;-63
2021/05/25 03:25:05;;;;;;;2.88;2.53;;;;;;;;;;4975293;28;20057;-63
2021/05/25 03:27:50;;;;;;;3.80;2.92;;;;;;;;;;4975014;28;20058;-63
2021/05/25 03:30:38;;;;;;;4.57;2.65;;;;;;;;;;4973998;28;20057;-63
2021/05/25 03:33:23;;;;;;;2.63;1.80;;;;;;;;;;4974223;28;20058;-63
2021/05/25 03:36:09;;;;;;;2.85;2.20;;;;;;;;;;4975098;28;20053;-63
2021/05/25 03:38:54;;;;;;;5.10;2.17;;;;;;;;;;4974768;28;20507;-63
2021/05/25 03:41:40;;;;;;;2.70;1.77;;;;;;;;;;4951210;29;20051;-63
2021/05/25 03:44:26;;;;;;;6.78;2.00;;;;;;;;;;4955409;29;20601;-63
2021/05/25 03:47:11;;;;;;;3.95;1.90;;;;;;;;;;4958322;28;20046;-63
2021/05/25 03:50:06;;;;;;;3.58;1.83;;;;;;;;;;4974585;28;20069;-63
2021/05/25 03:52:54;;;;;;;2.45;1.98;;;;;;;;;;4974627;28;20078;-63
2021/05/25 03:58:50;;;;;;;4.05;2.17;;;;;;;;;;4974498;28;20149;-63
2021/05/25 04:01:35;;;;;;;2.97;1.73;;;;;;;;;;4972158;28;20057;-63
2021/05/25 04:04:21;;;;;;;5.25;1.88;;;;;;;;;;4940583;29;20102;-63
2021/05/25 04:07:06;;;;;;;4.15;2.15;;;;;;;;;;4965564;28;20043;-63
2021/05/25 04:09:51;;;;;;;2.90;1.63;;;;;;;;;;4974109;28;20051;-63
2021/05/25 04:12:37;;;;;;;2.47;1.90;;;;;;;;;;4958745;28;20054;-63
2021/05/25 04:15:23;;;;;;;2.95;1.70;;;;;;;;;;4974306;28;20513;-63
2021/05/25 04:18:08;;;;;;;3.90;2.10;;;;;;;;;;4972434;28;20042;-63
2021/05/25 04:20:54;;;;;;;2.92;1.95;;;;;;;;;;4973741;28;20404;-63
2021/05/25 04:23:39;;;;;;;4.20;2.20;;;;;;;;;;4974176;28;20050;-63
2021/05/25 04:26:27;;;;;;;3.17;1.75;;;;;;;;;;4973960;28;20054;-64
2021/05/25 04:29:12;;;;;;;8.48;2.42;;;;;;;;;;4954667;29;20101;-64
2021/05/25 04:31:58;;;;;;;2.72;1.45;;;;;;;;;;4954876;28;20512;-63
2021/05/25 04:34:43;;;;;;;2.35;1.40;;;;;;;;;;4954638;29;20437;-63
2021/05/25 04:37:28;;;;;;;2.88;1.38;;;;;;;;;;4954418;28;20044;-63
2021/05/25 04:40:14;;;;;;;3.97;1.58;;;;;;;;;;4965559;28;20066;-64
2021/05/25 04:43:00;;;;;;;5.30;2.03;;;;;;;;;;4973716;28;20050;-63
2021/05/25 04:45:46;;;;;;;3.22;1.33;;;;;;;;;;4970751;28;20061;-64
2021/05/25 04:48:32;;;;;;;2.85;1.10;;;;;;;;;;4954421;28;20069;-63
2021/05/25 04:51:17;;;;;;;3.10;1.42;;;;;;;;;;4953931;29;20051;-63
2021/05/25 04:54:03;;;;;;;2.63;1.13;;;;;;;;;;4956670;28;20047;-63
2021/05/25 04:56:48;;;;;;;2.75;1.20;;;;;;;;;;4954363;28;20153;-63
2021/05/25 04:59:33;;;;;;;2.20;1.00;;;;;;;;;;4953667;29;20528;-63
2021/05/25 05:02:19;;;;;;;2.95;1.00;;;;;;;;;;4961351;28;20063;-63
2021/05/25 05:05:05;;;;;;;7.70;1.65;;;;;;;;;;4970386;28;20142;-64
2021/05/25 05:07:50;;;;;;;4.75;1.33;;;;;;;;;;4954236;28;20057;-63
2021/05/25 05:10:35;;;;;;;3.15;1.65;;;;;;;;;;4968103;28;20043;-63
2021/05/25 05:13:21;;;;;;;2.13;1.20;;;;;;;;;;4972825;28;20141;-63
2021/05/25 05:16:06;;;;;;;3.67;1.40;;;;;;;;;;4954245;29;20059;-63
2021/05/25 05:18:52;;;;;;;4.20;1.60;;;;;;;;;;4954530;28;20051;-63
2021/05/25 05:21:37;;;;;;;4.35;1.65;;;;;;;;;;4972975;28;20045;-63
2021/05/25 05:24:23;;;;;;;4.22;1.08;;;;;;;;;;4959719;28;20043;-63
2021/05/25 05:27:08;;;;;;;3.85;1.02;;;;;;;;;;4962126;28;20053;-63
2021/05/25 05:29:53;;;;;;;2.60;1.30;;;;;;;;;;4969359;28;20090;-63
2021/05/25 05:32:39;;;;;;;2.08;1.33;;;;;;;;;;4957957;29;20058;-63
2021/05/25 05:35:24;;;;;;;5.65;1.80;;;;;;;;;;4970564;28;20113;-63
2021/05/25 05:38:11;;;;;;;2.65;1.33;;;;;;;;;;4976846;28;20126;-63
2021/05/25 05:41:03;;;;;;;4.97;1.88;;;;;;;;;;4963923;28;20147;-63
2021/05/25 05:43:49;;;;;;;4.38;1.42;;;;;;;;;;4957791;29;20051;-63
2021/05/25 05:46:34;;;;;;;3.08;1.35;;;;;;;;;;4963509;28;20058;-63
2021/05/25 05:49:22;;;;;;;2.55;1.23;;;;;;;;;;4976922;28;20046;-63
2021/05/25 05:52:08;;;;;;;4.70;1.67;;;;;;;;;;4974681;28;20069;-63
2021/05/25 05:54:53;;;;;;;3.72;1.15;;;;;;;;;;4963338;28;20059;-63
2021/05/25 05:57:39;;;;;;;1.77;0.85;;;;;;;;;;4964074;28;20069;-63
2021/05/25 06:00:25;;;;;;;3.53;1.30;;;;;;;;;;4976644;28;20057;-63
2021/05/25 06:03:11;;;;;;;3.60;1.13;;;;;;;;;;4975372;28;20053;-63
2021/05/25 06:05:56;;;;;;;3.40;2.03;;;;;;;;;;4963827;28;20054;-63
2021/05/25 06:08:41;;;;;;;2.78;1.48;;;;;;;;;;4957125;29;20043;-63
2021/05/25 06:11:27;;;;;;;3.00;1.40;;;;;;;;;;4956771;29;20050;-63
2021/05/25 06:14:12;;;;;;;4.53;1.45;;;;;;;;;;4957243;29;20130;-63
2021/05/25 06:16:59;;;;;;;4.35;1.63;;;;;;;;;;4958167;28;20526;-63
2021/05/25 06:19:44;;;;;;;3.78;1.70;;;;;;;;;;4972107;28;20186;-63
2021/05/25 06:22:29;;;;;;;4.85;2.60;;;;;;;;;;4956328;29;20055;-63
2021/05/25 06:25:17;;;;;;;6.20;2.50;;;;;;;;;;4961995;28;20483;-63
2021/05/25 06:28:02;;;;;;;4.15;2.38;;;;;;;;;;4973426;28;20146;-63
2021/05/25 06:30:47;;;;;;;3.60;2.58;;;;;;;;;;4970657;28;20122;-63
2021/05/25 06:33:33;;;;;;;5.10;3.03;;;;;;;;;;4976030;28;20057;-63
2021/05/25 06:36:18;;;;;;;3.85;2.15;;;;;;;;;;4974085;28;20046;-63
2021/05/25 06:39:04;;;;;;;2.22;2.00;;;;;;;;;;5000935;23;20034;-61
2021/05/25 06:41:49;;;;;;;3.72;2.47;;;;;;;;;;4994571;28;20488;-61
2021/05/25 06:44:35;;;;;;;2.35;1.92;;;;;;;;;;5000443;28;20451;-61
2021/05/25 06:47:20;;;;;;;2.85;1.50;;;;;;;;;;5034910;28;20068;-61
2021/05/25 06:50:06;;;;;;;3.88;1.88;;;;;;;;;;5014280;28;20516;-59
2021/05/25 06:52:51;;;;;;;2.72;1.67;;;;;;;;;;4975561;28;20050;-59
2021/05/25 06:55:37;;;;;;;2.38;1.73;;;;;;;;;;4985141;28;20403;-61
2021/05/25 06:58:22;;;;;;;4.13;2.47;;;;;;;;;;5014513;28;20038;-61
2021/05/25 07:01:08;;;;;;;2.55;2.33;;;;;;;;;;4996866;28;20042;-62
2021/05/25 07:03:54;;;;;;;3.47;3.17;;;;;;;;;;4975624;28;20385;-62
2021/05/25 07:06:39;;;;;;;4.60;3.45;;;;;;;;;;5000942;28;20408;-63
2021/05/25 07:09:24;;;;;;;3.70;3.00;;;;;;;;;;5014250;28;20389;-63
2021/05/25 07:12:10;;;;;;;3.70;3.40;;;;;;;;;;4975549;28;20061;-63
2021/05/25 07:14:55;;;;;;;3.25;3.05;;;;;;;;;;4979649;28;20057;-62
2021/05/25 07:17:45;;;;;;;5.78;4.10;;;;;;;;;;4982755;28;20093;-63
2021/05/25 07:20:30;;;;;;;5.03;4.10;;;;;;;;;;4983133;28;20047;-62
2021/05/25 07:23:15;;;;;;;5.75;4.25;;;;;;;;;;5005755;28;20119;-62
2021/05/25 07:26:01;;;;;;;4.97;4.57;;;;;;;;;;5000718;28;20544;-63
2021/05/25 07:28:46;;;;;;;6.68;4.97;;;;;;;;;;4989869;28;20053;-61
2021/05/25 07:31:31;;;;;;;5.38;4.80;;;;;;;;;;5002801;28;20174;-62
2021/05/25 07:34:17;;;;;;;6.25;5.65;;;;;;;;;;5005597;28;20582;-63
2021/05/25 07:37:03;;;;;;;5.70;4.88;;;;;;;;;;4999882;28;20075;-62
2021/05/25 07:39:48;;;;;;;7.78;5.63;;;;;;;;;;5004443;28;20053;-61
2021/05/25 07:42:33;;;;;;;6.57;5.97;;;;;;;;;;5013953;28;20072;-62
2021/05/25 07:45:19;;;;;;;8.50;7.60;;;;;;;;;;5013625;28;20049;-63
2021/05/25 07:48:05;;;;;;;12.15;9.00;;;;;;;;;;4995758;28;20046;-61
2021/05/25 07:50:51;;;;;;;14.30;11.30;;;;;;;;;;4992878;28;20121;-61
2021/05/25 07:53:36;;;;;;;15.55;12.00;;;;;;;;;;4993895;28;20046;-61
2021/05/25 07:56:21;;;;;;;12.20;10.40;;;;;;;;;;4994789;28;20073;-63
2021/05/25 07:59:07;;;;;;;17.58;14.40;;;;;;;;;;5010637;28;20153;-62
2021/05/25 08:01:53;;;;;;;14.30;12.18;;;;;;;;;;4993827;28;20050;-61
2021/05/25 08:04:38;;;;;;;15.80;11.95;;;;;;;;;;4993811;28;20121;-62
2021/05/25 08:07:24;;;;;;;11.18;8.10;;;;;;;;;;4991728;28;20042;-62
2021/05/25 08:10:10;;;;;;;8.75;7.85;;;;;;;;;;4998374;28;20046;-61
2021/05/25 08:12:55;;;;;;;10.60;8.25;;;;;;;;;;5002740;28;20053;-63
2021/05/25 08:15:41;;;;;;;8.82;7.90;;;;;;;;;;4997086;28;20056;-62
2021/05/25 08:21:31;;;;;;;5.30;4.35;;;;;;;;;;4993220;28;20053;-61
2021/05/25 08:24:16;;;;;;;6.03;3.83;;;;;;;;;;4993388;28;20519;-62
2021/05/25 08:27:02;;;;;;;2.60;2.35;;;;;;;;;;4993398;28;20104;-61
2021/05/25 08:29:47;;;;;;;2.55;1.90;;;;;;;;;;4997477;28;20525;-61
2021/05/25 08:32:32;;;;;;;2.47;2.05;;;;;;;;;;5012924;28;20041;-63
2021/05/25 08:35:18;;;;;;;3.08;2.28;;;;;;;;;;5012727;28;20741;-62
2021/05/25 08:38:05;;;;;;;3.55;2.80;;;;;;;;;;5012639;28;20108;-63
2021/05/25 08:40:51;;;;;;;2.90;2.60;;;;;;;;;;4994984;28;20049;-61
2021/05/25 08:43:36;;;;;;;2.20;1.98;;;;;;;;;;5012533;28;20068;-62
2021/05/25 08:46:23;;;;;;;2.33;2.13;;;;;;;;;;5012649;28;20046;-62
2021/05/25 08:49:11;;;;;;;2.13;1.10;;;;;;;;;;5003304;28;20057;-63
2021/05/25 08:51:56;;;;;;;0.65;0.55;;;;;;;;;;4991195;28;20073;-64
2021/05/25 08:54:43;;;;;;;0.60;0.40;;;;;;;;;;4992981;28;20125;-61
2021/05/25 08:57:28;;;;;;;0.50;0.30;;;;;;;;;;4992993;28;20053;-61
2021/05/25 09:00:14;;;;;;;2.72;0.70;;;;;;;;;;4975836;28;20049;-63
2021/05/25 09:02:59;;;;;;;1.27;0.57;;;;;;;;;;5009325;28;20508;-65
2021/05/25 09:05:57;;;;;;;0.40;0.32;;;;;;;;;;4990600;28;20038;-65
2021/05/25 09:08:42;;;;;;;2.47;0.40;;;;;;;;;;4986448;28;20114;-64
2021/05/25 09:11:27;;;;;;;0.40;0.40;;;;;;;;;;4973459;28;20060;-64
2021/05/25 09:14:13;;;;;;;1.02;0.50;;;;;;;;;;5012466;28;20060;-64
2021/05/25 09:17:17;;;;;;;2.25;0.50;;;;;;;;;;5012010;28;20060;-63
2021/05/25 09:20:02;;;;;;;0.60;0.30;;;;;;;;;;4973452;28;20058;-63
2021/05/25 09:22:47;;;;;;;1.17;0.30;;;;;;;;;;4989750;28;20046;-63
2021/05/25 09:25:33;;;;;;;0.80;0.40;;;;;;;;;;4992587;28;20053;-63
2021/05/25 09:28:19;;;;;;;0.43;0.40;;;;;;;;;;5003665;28;20042;-63
2021/05/25 09:31:05;;;;;;;1.42;0.40;;;;;;;;;;4992245;28;20048;-63
2021/05/25 09:34:09;;;;;;;0.30;0.30;;;;;;;;;;4992946;28;20065;-63
2021/05/25 09:36:58;;;;;;;0.80;0.50;;;;;;;;;;4992524;28;20405;-63
2021/05/25 09:39:42;;;;;;;1.73;0.77;;;;;;;;;;4986090;28;20456;-64
2021/05/25 09:42:28;;;;;;;0.93;0.50;;;;;;;;;;4998029;28;20108;-64
2021/05/25 09:45:15;;;;;;;1.63;0.70;;;;;;;;;;4995842;28;20061;-64
2021/05/25 09:48:03;;;;;;;1.17;0.70;;;;;;;;;;5004701;28;20448;-64
2021/05/25 09:50:49;;;;;;;1.02;0.75;;;;;;;;;;4959839;28;20134;-64
2021/05/25 09:53:34;;;;;;;1.73;0.80;;;;;;;;;;4998982;28;20056;-63
2021/05/25 09:56:23;;;;;;;1.30;1.00;;;;;;;;;;5013525;28;20045;-64
2021/05/25 09:59:08;;;;;;;2.63;1.00;;;;;;;;;;5006497;28;20515;-62
2021/05/25 10:01:53;;;;;;;1.10;1.00;;;;;;;;;;4993685;28;20081;-64
2021/05/25 10:04:39;;;;;;;1.33;0.98;;;;;;;;;;5011802;28;20516;-64
2021/05/25 10:07:24;;;;;;;2.92;1.48;;;;;;;;;;5005671;28;20101;-62
2021/05/25 10:10:10;;;;;;;4.63;1.45;;;;;;;;;;4983314;28;20045;-62
2021/05/25 10:12:55;;;;;;;3.20;1.40;;;;;;;;;;5007877;28;20049;-62
2021/05/25 10:15:42;;;;;;;2.05;1.80;;;;;;;;;;5003923;28;20120;-62
2021/05/25 10:21:17;;;;;;;2.72;1.50;;;;;;;;;;4979926;28;20050;-61
2021/05/25 10:24:03;;;;;;;1.92;1.25;;;;;;;;;;4989016;28;20373;-62
2021/05/25 10:26:48;;;;;;;2.00;1.50;;;;;;;;;;4987718;28;20048;-62
2021/05/25 10:29:33;;;;;;;3.90;2.55;;;;;;;;;;4989155;28;20049;-62
2021/05/25 10:32:22;;;;;;;4.53;2.55;;;;;;;;;;4995465;28;20054;-63
2021/05/25 10:35:07;;;;;;;3.97;2.00;;;;;;;;;;4997713;28;20050;-63
2021/05/25 10:38:08;;;;;;;4.25;2.42;;;;;;;;;;5005515;28;20096;-62
2021/05/25 10:40:54;;;;;;;3.38;2.72;;;;;;;;;;5014675;28;20090;-62
2021/05/25 10:43:40;;;;;;;2.25;1.63;;;;;;;;;;5014610;28;20049;-63
2021/05/25 10:46:25;;;;;;;2.85;1.92;;;;;;;;;;4991180;28;20062;-62
2021/05/25 10:49:16;;;;;;;4.03;1.50;;;;;;;;;;4994968;28;20113;-62
2021/05/25 10:52:04;;;;;;;1.67;1.35;;;;;;;;;;5005277;28;20048;-62
2021/05/25 10:54:50;;;;;;;2.20;1.05;;;;;;;;;;5011541;28;20053;-62
2021/05/25 10:57:41;;;;;;;5.80;1.27;;;;;;;;;;5008533;28;20042;-62
2021/05/25 11:00:40;;;;;;;4.18;1.35;;;;;;;;;;4994606;28;20427;-62
2021/05/25 11:03:26;;;;;;;2.08;0.88;;;;;;;;;;4994688;28;20128;-62
2021/05/25 11:06:11;;;;;;;1.90;1.70;;;;;;;;;;5002805;28;20208;-62
2021/05/25 11:08:56;;;;;;;4.85;1.70;;;;;;;;;;4999587;28;20061;-62
2021/05/25 11:11:41;;;;;;;3.13;2.25;;;;;;;;;;4999608;28;20780;-62
2021/05/25 11:14:27;;;;;;;3.88;2.28;;;;;;;;;;5006656;28;20069;-62
2021/05/25 11:17:31;;;;;;;3.45;1.80;;;;;;;;;;5002535;28;20048;-62
2021/05/25 11:20:39;;;;;;;2.10;1.20;;;;;;;;;;5013738;28;20042;-62
2021/05/25 11:23:43;;;;;;;2.45;1.30;;;;;;;;;;5013989;28;20125;-62
2021/05/25 11:26:47;;;;;;;1.98;1.42;;;;;;;;;;4974414;28;20061;-62
2021/05/25 11:29:33;;;;;;;2.63;1.45;;;;;;;;;;4994038;28;20046;-62
2021/05/25 11:32:20;;;;;;;4.82;1.58;;;;;;;;;;4994263;28;20070;-62
2021/05/25 11:35:07;;;;;;;2.75;1.13;;;;;;;;;;4979676;28;20126;-63
2021/05/25 11:37:56;;;;;;;2.45;1.02;;;;;;;;;;4983211;28;20057;-62
2021/05/25 11:40:43;;;;;;;1.77;1.25;;;;;;;;;;5011704;28;20110;-62
2021/05/25 11:43:28;;;;;;;2.70;1.17;;;;;;;;;;5010002;28;20073;-62
2021/05/25 11:46:13;;;;;;;2.05;1.15;;;;;;;;;;4993946;28;20555;-63
2021/05/25 11:49:05;;;;;;;1.70;0.80;;;;;;;;;;4993740;28;20053;-62
2021/05/25 11:51:51;;;;;;;3.75;1.17;;;;;;;;;;5013141;28;20493;-62
2021/05/25 11:54:36;;;;;;;4.72;1.20;;;;;;;;;;4987339;28;20689;-62
2021/05/25 11:57:25;;;;;;;1.77;1.00;;;;;;;;;;4959754;28;20049;-62
2021/05/25 12:00:13;;;;;;;3.20;1.00;;;;;;;;;;4980480;28;20052;-63
2021/05/25 12:03:01;;;;;;;1.42;1.05;;;;;;;;;;5009055;28;20042;-63
2021/05/25 12:05:46;;;;;;;2.28;0.80;;;;;;;;;;4974325;28;20058;-63
2021/05/25 12:08:31;;;;;;;2.70;0.90;;;;;;;;;;4973999;28;20109;-63
2021/05/25 12:11:35;;;;;;;2.90;1.05;;;;;;;;;;4992136;28;20185;-63
2021/05/25 12:14:20;;;;;;;3.67;0.70;;;;;;;;;;4998496;28;20124;-63
2021/05/25 12:17:05;;;;;;;1.60;0.65;;;;;;;;;;4992631;28;20575;-63
2021/05/25 12:19:54;;;;;;;1.15;0.52;;;;;;;;;;4993190;28;20138;-63
2021/05/25 12:22:40;;;;;;;3.72;1.20;;;;;;;;;;5007866;28;20113;-63
2021/05/25 12:25:29;;;;;;;1.92;0.98;;;;;;;;;;4991964;28;20043;-63
2021/05/25 12:28:15;;;;;;;1.50;0.90;;;;;;;;;;4989087;28;20453;-63
2021/05/25 12:31:02;;;;;;;1.40;0.85;;;;;;;;;;4961745;28;20500;-63
2021/05/25 12:33:50;;;;;;;1.63;1.00;;;;;;;;;;5000467;28;20420;-63
2021/05/25 12:36:40;;;;;;;2.40;1.08;;;;;;;;;;4993054;28;20069;-63
2021/05/25 12:39:36;;;;;;;1.92;0.80;;;;;;;;;;4992292;28;20066;-63
2021/05/25 12:42:21;;;;;;;2.00;0.95;;;;;;;;;;4972759;28;20515;-63
2021/05/25 12:45:11;;;;;;;1.40;0.70;;;;;;;;;;4992740;28;20428;-63
2021/05/25 12:48:00;;;;;;;3.78;1.20;;;;;;;;;;4992966;28;20053;-64
2021/05/25 12:50:48;;;;;;;1.25;0.77;;;;;;;;;;4992748;28;20053;-63
2021/05/25 12:53:48;;;;;;;3.10;1.25;;;;;;;;;;4984053;28;20042;-63
2021/05/25 12:56:33;;;;;;;2.13;0.82;;;;;;;;;;4980948;28;20050;-63
2021/05/25 12:59:18;;;;;;;1.42;0.88;;;;;;;;;;4981419;28;20042;-63
2021/05/25 13:02:04;;;;;;;2.75;0.70;;;;;;;;;;4981992;28;20504;-64
2021/05/25 13:04:50;;;;;;;1.52;0.80;;;;;;;;;;5005394;28;20082;-64
2021/05/25 13:07:50;;;;;;;1.88;0.90;;;;;;;;;;5005303;28;20042;-64
2021/05/25 13:10:38;;;;;;;2.05;0.70;;;;;;;;;;4991424;28;20128;-63
2021/05/25 13:13:24;;;;;;;3.58;1.25;;;;;;;;;;4995649;28;20223;-63
2021/05/25 13:16:31;;;;;;;1.10;0.85;;;;;;;;;;5012314;28;20096;-63
2021/05/25 13:19:16;;;;;;;2.60;0.63;;;;;;;;;;5012315;28;20060;-63
2021/05/25 13:22:01;;;;;;;3.03;1.05;;;;;;;;;;4993206;28;20057;-65
2021/05/25 13:24:53;;;;;;;4.63;0.90;;;;;;;;;;4993904;28;20057;-63
2021/05/25 13:27:38;;;;;;;1.45;1.00;;;;;;;;;;4988392;28;20039;-63
2021/05/25 13:30:34;;;;;;;3.40;1.30;;;;;;;;;;4993919;28;20042;-64
2021/05/25 13:33:19;;;;;;;2.95;1.00;;;;;;;;;;4979201;28;20111;-64
2021/05/25 13:36:04;;;;;;;2.95;1.40;;;;;;;;;;5013716;28;20073;-64
2021/05/25 13:38:49;;;;;;;5.45;1.80;;;;;;;;;;5024384;23;20149;-63
2021/05/25 13:41:35;;;;;;;2.30;1.38;;;;;;;;;;4974470;28;20138;-63
2021/05/25 13:44:20;;;;;;;4.75;1.50;;;;;;;;;;4973225;28;20050;-62
2021/05/25 13:47:06;;;;;;;6.18;1.92;;;;;;;;;;4972394;28;20097;-62
2021/05/25 13:49:52;;;;;;;4.97;2.20;;;;;;;;;;4973272;28;20051;-62
2021/05/25 13:52:37;;;;;;;6.15;2.10;;;;;;;;;;4976565;28;20049;-62
2021/05/25 13:55:26;;;;;;;5.75;2.13;;;;;;;;;;4976034;28;20047;-63
2021/05/25 13:58:13;;;;;;;3.50;1.30;;;;;;;;;;4958973;28;20086;-62
2021/05/25 14:03:56;;;;;;;4.05;1.73;;;;;;;;;;4938006;29;20054;-62
2021/05/25 14:06:42;;;;;;;6.22;2.15;;;;;;;;;;4975628;28;20073;-63
2021/05/25 14:09:27;;;;;;;4.80;2.25;;;;;;;;;;4974469;28;20077;-63
2021/05/25 14:12:13;;;;;;;7.68;2.60;;;;;;;;;;4976221;28;20053;-62
2021/05/25 14:14:58;;;;;;;5.90;2.13;;;;;;;;;;4974422;28;20109;-62
2021/05/25 14:17:44;;;;;;;1.70;1.40;;;;;;;;;;4975353;28;20531;-62
2021/05/25 14:20:29;;;;;;;5.28;2.03;;;;;;;;;;4975863;28;20421;-62
2021/05/25 14:23:14;;;;;;;5.53;2.00;;;;;;;;;;4960176;28;20043;-62
2021/05/25 14:26:01;;;;;;;4.95;1.65;;;;;;;;;;4967189;28;20051;-63
2021/05/25 14:28:47;;;;;;;5.43;1.73;;;;;;;;;;4975445;28;20050;-63
2021/05/25 14:31:32;;;;;;;5.47;1.65;;;;;;;;;;4975542;28;20058;-62
2021/05/25 14:34:18;;;;;;;4.85;1.75;;;;;;;;;;4976104;28;20062;-63
2021/05/25 14:37:03;;;;;;;9.88;2.05;;;;;;;;;;4972300;28;20054;-63
2021/05/25 14:39:48;;;;;;;7.00;2.10;;;;;;;;;;4966542;28;20081;-62
2021/05/25 14:42:34;;;;;;;5.45;2.08;;;;;;;;;;4974705;28;20061;-62
2021/05/25 14:45:20;;;;;;;6.00;2.70;;;;;;;;;;4975849;28;20051;-63
2021/05/25 14:48:06;;;;;;;5.43;2.50;;;;;;;;;;4956280;28;20054;-63
2021/05/25 14:50:51;;;;;;;4.32;2.30;;;;;;;;;;4946835;28;20047;-63
2021/05/25 14:53:47;;;;;;;6.00;2.00;;;;;;;;;;4955531;29;20078;-63
2021/05/25 14:56:37;;;;;;;5.40;2.30;;;;;;;;;;4957289;28;20050;-63
2021/05/25 14:59:23;;;;;;;8.30;2.22;;;;;;;;;;4956379;28;20058;-63
2021/05/25 15:02:15;;;;;;;4.68;1.80;;;;;;;;;;4955274;28;20529;-63
2021/05/25 15:05:06;;;;;;;5.53;2.03;;;;;;;;;;4959795;28;20043;-63
2021/05/25 15:07:53;;;;;;;4.32;1.90;;;;;;;;;;4959919;28;20051;-62
2021/05/25 15:10:38;;;;;;;4.80;1.77;;;;;;;;;;4955782;29;20054;-63
2021/05/25 15:13:23;;;;;;;3.88;1.35;;;;;;;;;;4975217;28;20050;-62
2021/05/25 15:16:13;;;;;;;3.50;1.10;;;;;;;;;;4971026;28;20065;-63
2021/05/25 15:18:59;;;;;;;4.10;1.50;;;;;;;;;;4958439;28;20094;-64
2021/05/25 15:21:45;;;;;;;6.22;1.40;;;;;;;;;;4955961;29;20090;-63
2021/05/25 15:24:30;;;;;;;4.18;1.45;;;;;;;;;;4955736;28;20182;-63
2021/05/25 15:27:16;;;;;;;3.72;1.58;;;;;;;;;;4954950;29;20050;-63
2021/05/25 15:30:01;;;;;;;6.72;1.30;;;;;;;;;;4972829;28;20046;-63
2021/05/25 15:32:46;;;;;;;4.28;1.60;;;;;;;;;;4957027;28;20429;-63
2021/05/25 15:35:31;;;;;;;3.17;1.30;;;;;;;;;;4955611;29;20058;-63
2021/05/25 15:38:17;;;;;;;6.35;1.48;;;;;;;;;;4948931;28;20055;-63
2021/05/25 15:41:02;;;;;;;4.38;1.40;;;;;;;;;;4936014;29;20414;-63
2021/05/25 15:43:47;;;;;;;4.15;1.27;;;;;;;;;;4954609;28;20513;-62
2021/05/25 15:46:33;;;;;;;2.50;1.10;;;;;;;;;;4974448;28;20129;-63
2021/05/25 15:49:18;;;;;;;7.15;1.60;;;;;;;;;;4973945;28;20082;-63
2021/05/25 15:52:04;;;;;;;2.53;1.02;;;;;;;;;;4974439;28;20058;-63
2021/05/25 15:54:49;;;;;;;5.68;1.58;;;;;;;;;;4973912;28;20058;-62
2021/05/25 15:57:35;;;;;;;4.43;1.02;;;;;;;;;;4974104;28;20047;-63
2021/05/25 16:00:23;;;;;;;4.60;1.50;;;;;;;;;;4944729;29;20046;-63
2021/05/25 16:03:09;;;;;;;6.57;1.98;;;;;;;;;;4941151;28;20070;-65
2021/05/25 16:05:55;;;;;;;5.97;1.90;;;;;;;;;;4942800;29;20053;-63
2021/05/25 16:08:40;;;;;;;2.88;1.02;;;;;;;;;;4946803;28;20187;-63
2021/05/25 16:11:27;;;;;;;4.40;1.10;;;;;;;;;;4941652;29;20061;-64
2021/05/25 16:14:13;;;;;;;3.10;1.55;;;;;;;;;;4948266;28;20063;-64
2021/05/25 16:17:00;;;;;;;2.42;1.20;;;;;;;;;;4957088;28;20631;-65
2021/05/25 16:19:46;;;;;;;3.28;1.40;;;;;;;;;;4949212;28;20393;-64
2021/05/25 16:22:31;;;;;;;3.00;1.35;;;;;;;;;;4955054;28;20569;-64
2021/05/25 16:25:17;;;;;;;3.40;1.80;;;;;;;;;;4949964;28;20058;-62
2021/05/25 16:28:03;;;;;;;4.50;1.70;;;;;;;;;;4954946;28;20257;-64
2021/05/25 16:30:48;;;;;;;4.40;1.63;;;;;;;;;;4954164;29;20109;-65
2021/05/25 16:33:33;;;;;;;4.97;1.70;;;;;;;;;;4953644;28;20057;-64
2021/05/25 16:36:18;;;;;;;3.90;1.55;;;;;;;;;;4954359;28;20054;-63
2021/05/25 16:39:04;;;;;;;6.93;1.67;;;;;;;;;;4942288;28;20070;-64
2021/05/25 16:41:49;;;;;;;2.75;1.30;;;;;;;;;;4952244;29;20050;-63
2021/05/25 16:44:35;;;;;;;3.80;1.63;;;;;;;;;;4950661;28;20078;-63
2021/05/25 16:47:20;;;;;;;3.70;1.33;;;;;;;;;;4942401;28;20054;-63